Paulding, OH (45879)

3:35 PM EDT on September 03, 2015 (GMT -0400)
3 miles WNW of Melrose | | Change Station
CLOSE
Current Station
Personal Weather Station
Location: Paulding County, OH
Elevation: 722 ft
Nearby Weather Stations

Elev 722 ft 41.10 °N, 84.48 °W | Updated 4 minutes ago

Clear
Clear
90.3 °F
Feels Like 98 °F
N
2.0
Wind Variable Wind from NW
Gusts 15.0 mph

Today
High -- | Low -- °F
--% Chance of Precip.
Yesterday
High -- | Low -- °F
Precip. -- in
7:06 AM 8:08 PM
Waning Gibbous, 67% visible
Pressure 29.93 in
Visibility 10.0 miles
Clouds Few 5000 ft
Heat Index 98 °F
Dew Point 72 °F
Humidity 55%
Rainfall 0.00 in
Snow Depth Not available.
UV 8 out of 12
Pollen 10.10 out of 12
Air Quality Not available.
Flu Activity Not available.
METAR KDFI 031853Z AUTO 25007KT 220V320 10SM FEW050 32/18 A2994 RMK AO2 SLP133 T03170178
Pressure 29.93 in
Visibility 10.0 miles
Clouds Few 5000 ft
Heat Index 98 °F
Dew Point 72 °F
Humidity 55%
Rainfall 0.00 in
Snow Depth Not available.
UV 8 out of 12
Pollen 10.10 out of 12
Air Quality Not available.
Flu Activity Not available.
METAR KDFI 031853Z AUTO 25007KT 220V320 10SM FEW050 32/18 A2994 RMK AO2 SLP133 T03170178

10-Day Weather Forecast

×

Almanac

Astronomy

Sep. 03, 2015 Rise Set
Actual Time
Civil Twilight
Nautical Twilight
Astronomical Twilight
Moon
Length of Visible Light
Length of Day
Tomorrow will be .
, % of the Moon is Illuminated

Today's Extremes

State Highs State Lows

Community

WunderPhotos

Upload Photos

1,852,018 photos uploaded!

WunderBlogs® & News

Nearby

Air Quality

  Air Quality AQ Index Pollutant
Not available.

Snow Depth

Station Depth Elevation

Earthquake Activity

City Distance Mag. Time & Date
Minimum magnitude displayed is 2.5.

Coastal Water Temperatures

Place Temperature

Stations

Nearby Weather Stations

Station Location Temp. Windchill Dew Point Humidity Wind Precip. Elev Updated Type